»·PEaware :: N232Z KSBA-KVNY

N232Z :: KSBA-KVNY

FLIGHT INFORMATION

Flight Status: Arrived
Operator: Privately registered:
United States
More flights under this callsign
Pilot: Merv A. (1555)
Aircraft: Unknown
(LEG2)
More flights by this aircraft type
Origin: KSBA Santa Barbara Mun
United States
Destination: KVNY Van Nuys
United States
More flights between these airports :: More routes between these airports
Route: +KWANG CMA CMA072R GINNA
File this flight plan on PilotEdge
Remarks: TEC ; SBAP2
Altitude:
(Current/Filed)
5,000ft
Speed:
(Current/Filed)
190kts
Departed: 01-Feb-19 05:07 PM
Arrived: 01-Feb-19 05:37 PM
Distance/Time
Traveled:
68nm/0:30
Distance/Time
To Go:
Arrived

Flight Plot

Page will automatically refresh every two minutes.


Map Options




Map Legend


Flown Route
Filed Route
Departure Airport
Arrival Airport
Navaid (VOR, NDB)
Fix

Horizontal Profiles

Position Reports

Time Latitude Longitude Heading Altitude Ground
Speed
01-Feb-19 16:31 34.420361 -119.836217 77 13ft 0kts
01-Feb-19 16:32 34.420361 -119.836217 77 13ft 0kts
01-Feb-19 16:33 34.420361 -119.836216 77 13ft 0kts
01-Feb-19 16:34 34.420362 -119.836214 77 13ft 0kts
01-Feb-19 16:35 34.420359 -119.836230 77 13ft 0kts
01-Feb-19 16:36 34.420359 -119.836228 77 13ft 0kts
01-Feb-19 16:37 34.420359 -119.836226 76 13ft 0kts
01-Feb-19 16:38 34.420360 -119.836224 76 13ft 0kts
01-Feb-19 16:39 34.420360 -119.836222 76 13ft 0kts
01-Feb-19 16:40 34.420361 -119.836220 76 13ft 0kts
01-Feb-19 16:41 34.420361 -119.836220 76 13ft 0kts
01-Feb-19 16:42 34.420361 -119.836220 76 13ft 0kts
01-Feb-19 16:43 34.420361 -119.836220 76 13ft 0kts
01-Feb-19 16:44 34.420361 -119.836220 76 13ft 0kts
01-Feb-19 16:45 34.420361 -119.836220 76 13ft 0kts
01-Feb-19 16:46 34.420361 -119.836220 76 13ft 0kts
01-Feb-19 16:47 34.420361 -119.836220 76 13ft 0kts
01-Feb-19 16:48 34.420361 -119.836220 76 13ft 0kts
01-Feb-19 16:49 34.420361 -119.836220 76 13ft 0kts
01-Feb-19 16:50 34.420361 -119.836218 76 13ft 0kts
01-Feb-19 16:51 34.420361 -119.836216 76 13ft 0kts
01-Feb-19 16:52 34.420361 -119.836216 76 13ft 0kts
01-Feb-19 16:53 34.420361 -119.836216 76 13ft 0kts
01-Feb-19 16:54 34.420361 -119.836216 76 13ft 0kts
01-Feb-19 16:55 34.420361 -119.836216 76 13ft 0kts
01-Feb-19 16:56 34.420361 -119.836216 76 13ft 0kts
01-Feb-19 16:57 34.420361 -119.836216 76 13ft 0kts
01-Feb-19 16:58 34.420361 -119.836216 76 13ft 0kts
01-Feb-19 16:59 34.419924 -119.836214 269 13ft 5kts
01-Feb-19 17:00 34.421234 -119.836725 345 13ft 8kts
01-Feb-19 17:01 34.423173 -119.837295 354 13ft 8kts
01-Feb-19 17:02 34.426695 -119.838142 70 13ft 9kts
01-Feb-19 17:03 34.426839 -119.834433 68 13ft 11kts
01-Feb-19 17:04 34.427180 -119.834277 339 13ft 0kts
01-Feb-19 17:05 34.427180 -119.834277 339 13ft 0kts
01-Feb-19 17:06 34.427753 -119.843835 261 50ft 113kts
01-Feb-19 17:07 34.425295 -119.893994 261 1357ft 164kts
01-Feb-19 17:08 34.417425 -119.947456 211 2744ft 153kts
01-Feb-19 17:09 34.394451 -119.914323 102 3694ft 157kts
01-Feb-19 17:10 34.388800 -119.864892 102 4776ft 145kts
01-Feb-19 17:11 34.380935 -119.815332 107 5004ft 161kts
01-Feb-19 17:12 34.372648 -119.758813 108 5003ft 177kts
01-Feb-19 17:13 34.357486 -119.701233 110 5002ft 181kts
01-Feb-19 17:14 34.342755 -119.642599 109 5003ft 183kts
01-Feb-19 17:15 34.328610 -119.583476 109 5000ft 181kts
01-Feb-19 17:16 34.314738 -119.525036 109 4985ft 180kts
01-Feb-19 17:17 34.301146 -119.467788 109 4988ft 179kts
01-Feb-19 17:18 34.287442 -119.409987 109 4990ft 179kts
01-Feb-19 17:19 34.273633 -119.351927 109 4993ft 179kts
01-Feb-19 17:20 34.259872 -119.293846 109 4994ft 179kts
01-Feb-19 17:21 34.246150 -119.235995 109 4994ft 180kts
01-Feb-19 17:22 34.232311 -119.177687 109 5008ft 180kts
01-Feb-19 17:23 34.218289 -119.119692 109 4996ft 179kts
01-Feb-19 17:24 34.217846 -119.058760 95 5005ft 181kts
01-Feb-19 17:25 34.219256 -118.997496 91 4998ft 183kts
01-Feb-19 17:26 34.219908 -118.936048 95 4999ft 182kts
01-Feb-19 17:27 34.217535 -118.875560 97 5005ft 177kts
01-Feb-19 17:28 34.214297 -118.814983 97 4610ft 185kts
01-Feb-19 17:29 34.210208 -118.753477 96 4014ft 176kts
01-Feb-19 17:30 34.205925 -118.695494 97 4000ft 176kts
01-Feb-19 17:31 34.201966 -118.636528 97 4000ft 176kts
01-Feb-19 17:32 34.201314 -118.575415 73 3284ft 189kts
01-Feb-19 17:33 34.226314 -118.520849 52 2266ft 156kts
01-Feb-19 17:34 34.236440 -118.495493 162 1532ft 101kts
01-Feb-19 17:35 34.212384 -118.490722 175 805ft 62kts
01-Feb-19 17:36 34.208267 -118.491065 208 805ft 0kts
01-Feb-19 17:37 34.208266 -118.491066 208 805ft 0kts
01-Feb-19 17:38 34.208461 -118.491488 356 805ft 6kts
01-Feb-19 17:39 34.211418 -118.491771 355 805ft 14kts
01-Feb-19 17:40 34.215988 -118.492247 355 805ft 16kts
01-Feb-19 17:41 34.217517 -118.494794 279 805ft 9kts
01-Feb-19 17:42 34.218297 -118.496706 355 805ft 4kts
01-Feb-19 17:43 34.218188 -118.496163 174 805ft 0kts
01-Feb-19 17:44 34.218188 -118.496163 174 805ft 0kts
01-Feb-19 17:45 34.218188 -118.496163 174 805ft 0kts
01-Feb-19 17:46 34.218188 -118.496163 174 805ft 0kts

Navigation Log

Ident Type
Flight plan parsing failed, navigation log unavailable